Ferdinand R Hassler — WTEK — position and weather

sailwx.info

Track history (hours):
 
Tides and Currents Weather Stations Pressure Air Temp Water Temp Dewpoint Dewpoint Depression Visibility Wind Speed Wind Dir Waves Ship Positions

Ferdinand R Hassler

Last reported at 2014-Sep-22 10:32 UTC. Time now 2014-Sep-22 22:22 UTC.
Position N 36°52' W 076°19'.

Length 37 m; draft 3.8 m.

Type: . MMSI: 369970091.

Date/timePositionNaut miles runAvg speedWind from/ knotsBaromVisibWave heightAir tempDewpointWater temp
2014-Sep-22 10:32N 36°52' W 076°19'9 8.9
2014-Sep-22 09:33N 37°00' W 076°17'1211.7
2014-Sep-22 08:32N 36°58' W 076°03'1110.9
2014-Sep-22 07:32N 36°58' W 075°49'10 9.7
2014-Sep-22 06:31N 37°06' W 075°43'1 0.7
2014-Sep-22 04:22N 37°06' W 075°41'1 1.0
2014-Sep-22 03:22N 37°06' W 075°43'1 0.7
2014-Sep-22 02:19N 37°06' W 075°44'1 1.4
2014-Sep-22 01:30N 37°06' W 075°45'1 0.7
2014-Sep-21 23:33N 37°06' W 075°47'5 4.6
2014-Sep-21 22:31N 37°10' W 075°44'5 5.4
2014-Sep-21 21:33N 37°15' W 075°42'6 1.2
2014-Sep-21 16:12N 37°10' W 075°46'2 2.9
2014-Sep-21 15:29N 37°08' W 075°47'1 0.6
2014-Sep-21 14:31N 37°07' W 075°48'1 1.2
2014-Sep-21 13:32N 37°06' W 075°47'2 1.8
2014-Sep-21 12:33N 37°06' W 075°49'1 0.7
2014-Sep-21 10:30N 37°06' W 075°47'1 1.2
2014-Sep-21 09:30N 37°06' W 075°45'0 0.3
2014-Sep-21 08:24N 37°06' W 075°45'2 2.0
2014-Sep-21 07:29N 37°06' W 075°43'1 0.8
2014-Sep-21 06:28N 37°06' W 075°42'1 1.3
2014-Sep-21 05:30N 37°06' W 075°43'1 1.0
2014-Sep-21 04:30N 37°06' W 075°44'1 1.1
2014-Sep-21 03:32N 37°05' W 075°46'1 0.8
2014-Sep-21 02:33N 37°05' W 075°47'1 0.5
2014-Sep-21 00:32N 37°05' W 075°45'2 2.3
2014-Sep-20 23:33N 37°07' W 075°47'13 2.6
2014-Sep-20 18:21N 36°54' W 075°49'4 4.5
2014-Sep-20 17:31N 36°57' W 075°51'1 0.7
2014-Sep-20 16:29N 36°57' W 075°51'2 1.9
2014-Sep-20 15:33N 36°56' W 075°52'1 0.6
2014-Sep-20 14:33N 36°56' W 075°53'2 2.2
2014-Sep-20 13:31N 36°57' W 075°50'0 0.3
2014-Sep-20 12:33N 36°58' W 075°50'3 3.3
2014-Sep-20 11:33N 37°00' W 075°48'13 3.4
2014-Sep-20 07:33N 37°13' W 075°44'9 4.4
2014-Sep-20 05:29N 37°06' W 075°50'1 0.4
2014-Sep-20 03:18N 37°06' W 075°49'0 0.2
2014-Sep-20 02:33N 37°06' W 075°49'1 0.8
2014-Sep-20 01:33N 37°05' W 075°50'0 0.3
2014-Sep-20 00:33N 37°06' W 075°50'0 0.2
2014-Sep-19 23:30N 37°06' W 075°49'1 0.8
2014-Sep-19 22:26N 37°05' W 075°50'1 1.7
2014-Sep-19 21:33N 37°06' W 075°49'1 0.9
2014-Sep-19 20:33N 37°06' W 075°49'1 1.1
2014-Sep-19 19:23N 37°07' W 075°49'0 0.0
2014-Sep-19 18:31N 37°07' W 075°49'0 0.1
2014-Sep-19 14:26N 37°07' W 075°49'2 0.5
2014-Sep-19 11:07N 37°05' W 075°49'5 6.0
2014-Sep-19 10:13N 37°10' W 075°46'1 0.8
2014-Sep-19 09:29N 37°11' W 075°46'1 1.0
2014-Sep-19 08:04N 37°09' W 075°47'4 8.2
2014-Sep-19 07:33N 37°06' W 075°49'4 1.6
2014-Sep-19 05:09N 37°09' W 075°47'2 0.8
2014-Sep-19 02:30N 37°11' W 075°46'5 5.2
2014-Sep-19 01:31N 37°06' W 075°49'1 0.1
2014-Sep-18 15:21N 37°08' W 075°48'1 1.5
2014-Sep-18 14:28N 37°06' W 075°48'2 2.0
2014-Sep-18 13:30N 37°08' W 075°47'1 0.6
2014-Sep-18 11:29N 37°09' W 075°47'2 1.9
2014-Sep-18 10:33N 37°08' W 075°48'1 0.5
2014-Sep-18 08:33N 37°08' W 075°47'0 0.2
2014-Sep-18 07:32N 37°09' W 075°47'2 0.9
2014-Sep-18 05:25N 37°07' W 075°48'0 0.1
2014-Sep-17 23:14N 37°07' W 075°47'0 0.4
2014-Sep-17 22:33N 37°08' W 075°47'0 0.0
2014-Sep-17 17:32N 37°08' W 075°47'1 0.3
2014-Sep-17 14:19N 37°08' W 075°47'1 1.8
2014-Sep-17 13:32N 37°07' W 075°47'3 0.5
2014-Sep-17 08:27N 37°10' W 075°46'13 6.9
2014-Sep-17 06:31N 36°57' W 075°52'1 1.5
2014-Sep-17 05:33N 36°58' W 075°50'2 2.1
2014-Sep-17 04:33N 36°57' W 075°52'3 2.5
2014-Sep-17 03:33N 36°58' W 075°49'1 1.4
2014-Sep-17 02:32N 36°58' W 075°48'2 2.0
2014-Sep-17 01:32N 36°57' W 075°50'2 2.3
2014-Sep-17 00:33N 36°57' W 075°53'5 4.7
2014-Sep-16 23:32N 36°58' W 075°47'4 1.9
2014-Sep-16 21:25N 36°57' W 075°52'2 1.8
2014-Sep-16 20:22N 36°57' W 075°49'2 1.7
2014-Sep-16 19:21N 36°58' W 075°47'3 3.9
2014-Sep-16 18:31N 36°57' W 075°51'1 1.2
2014-Sep-16 17:30N 36°56' W 075°53'4 3.9
2014-Sep-16 16:30N 36°58' W 075°48'2 2.5
2014-Sep-16 15:30N 36°57' W 075°51'2 1.8
2014-Sep-16 14:28N 36°56' W 075°53'0 0.1
2014-Sep-16 13:08N 36°56' W 075°53'4 5.9
2014-Sep-16 12:32N 36°57' W 075°49'3 3.1
2014-Sep-16 11:32N 36°56' W 075°53'6 6.2
2014-Sep-16 10:33N 36°59' W 075°46'6 6.1
2014-Sep-16 09:33N 36°56' W 075°53'2 2.1
2014-Sep-16 08:31N 36°57' W 075°50'2 2.6
2014-Sep-16 07:33N 36°58' W 075°47'2 1.8
2014-Sep-16 06:29N 36°57' W 075°49'3 2.8
2014-Sep-16 05:30N 36°56' W 075°53'2 1.7
2014-Sep-16 04:31N 36°56' W 075°51'3 2.8
2014-Sep-16 03:29N 36°57' W 075°47'2 2.0
2014-Sep-16 02:30N 36°57' W 075°50'2 2.6
2014-Sep-16 01:34N 36°56' W 075°52'1 1.0
2014-Sep-16 00:31N 36°56' W 075°51'3 3.6
2014-Sep-15 23:33N 36°57' W 075°47'2 1.6
2014-Sep-15 22:24N 36°57' W 075°49'3 3.6
2014-Sep-15 21:32N 36°56' W 075°53'1411.5
2014-Sep-15 20:19N 36°59' W 076°10'10 2.6
2014-Sep-15 16:22N 36°51' W 076°18'0 0.0
2014-Sep-15 15:25N 36°51' W 076°18'0 0.0
2014-Sep-15 06:25N 36°51' W 076°18'0 0.0
2014-Sep-15 05:31N 36°51' W 076°18'0 0.0
2014-Sep-15 01:28N 36°51' W 076°18'0 0.0
2014-Sep-15 00:31N 36°51' W 076°18'0 0.0
2014-Sep-14 23:22N 36°51' W 076°18'0 0.0
2014-Sep-14 21:22N 36°51' W 076°18'0 0.0
2014-Sep-14 20:19N 36°51' W 076°18'0 0.0
2014-Sep-14 19:04N 36°51' W 076°18'0 0.0
2014-Sep-14 17:16N 36°51' W 076°18'0 0.0
2014-Sep-14 16:19N 36°51' W 076°18'0 0.0
2014-Sep-14 15:13N 36°51' W 076°18'0 0.0
2014-Sep-14 14:25N 36°51' W 076°18'0 0.0
2014-Sep-14 13:13N 36°51' W 076°18'0 0.0
2014-Sep-14 11:28N 36°51' W 076°18'0 0.0
2014-Sep-14 10:22N 36°51' W 076°18'0 0.0
2014-Sep-14 07:31N 36°51' W 076°18'0 0.0
2014-Sep-14 06:04N 36°51' W 076°18'0 0.0
2014-Sep-13 19:31N 36°51' W 076°18'0 0.0
2014-Sep-13 15:25N 36°51' W 076°18'0 0.0
2014-Sep-13 11:28N 36°51' W 076°18'0 0.0
2014-Sep-13 09:28N 36°51' W 076°18'0 0.0
2014-Sep-13 08:25N 36°51' W 076°18'0 0.0
2014-Sep-13 04:13N 36°51' W 076°18'0 0.0
2014-Sep-13 03:28N 36°51' W 076°18'0 0.0
2014-Sep-13 02:16N 36°51' W 076°18'0 0.0
2014-Sep-13 01:04N 36°51' W 076°18'0 0.0
2014-Sep-12 23:22N 36°51' W 076°18'0 0.0
2014-Sep-12 22:31N 36°51' W 076°18'0 0.0
2014-Sep-12 20:28N 36°51' W 076°18'0 0.0
2014-Sep-12 13:25N 36°51' W 076°18'1 1.4
2014-Sep-12 12:33N 36°52' W 076°19'9 9.0
2014-Sep-12 11:33N 37°00' W 076°16'1111.1
2014-Sep-12 10:33N 36°58' W 076°03'  
Track history (hours):
 
Tides and Currents Weather Stations Pressure Air Temp Water Temp Dewpoint Dewpoint Depression Visibility Wind Speed Wind Dir Waves Ship Positions

Ferdinand R Hassler

Last reported at 2014-Sep-22 10:32 UTC. Time now 2014-Sep-22 22:22 UTC.
Position N 36°52' W 076°19'.

Length 37 m; draft 3.8 m.

Type: . MMSI: 369970091.

Date/timePositionNaut miles runAvg speedWind from/ knotsBaromVisibWave heightAir tempDewpointWater temp
2014-Sep-22 10:32N 36°52' W 076°19'9 8.9
2014-Sep-22 09:33N 37°00' W 076°17'1211.7
2014-Sep-22 08:32N 36°58' W 076°03'1110.9
2014-Sep-22 07:32N 36°58' W 075°49'10 9.7
2014-Sep-22 06:31N 37°06' W 075°43'1 0.7
2014-Sep-22 04:22N 37°06' W 075°41'1 1.0
2014-Sep-22 03:22N 37°06' W 075°43'1 0.7
2014-Sep-22 02:19N 37°06' W 075°44'1 1.4
2014-Sep-22 01:30N 37°06' W 075°45'1 0.7
2014-Sep-21 23:33N 37°06' W 075°47'5 4.6
2014-Sep-21 22:31N 37°10' W 075°44'5 5.4
2014-Sep-21 21:33N 37°15' W 075°42'6 1.2
2014-Sep-21 16:12N 37°10' W 075°46'2 2.9
2014-Sep-21 15:29N 37°08' W 075°47'1 0.6
2014-Sep-21 14:31N 37°07' W 075°48'1 1.2
2014-Sep-21 13:32N 37°06' W 075°47'2 1.8
2014-Sep-21 12:33N 37°06' W 075°49'1 0.7
2014-Sep-21 10:30N 37°06' W 075°47'1 1.2
2014-Sep-21 09:30N 37°06' W 075°45'0 0.3
2014-Sep-21 08:24N 37°06' W 075°45'2 2.0
2014-Sep-21 07:29N 37°06' W 075°43'1 0.8
2014-Sep-21 06:28N 37°06' W 075°42'1 1.3
2014-Sep-21 05:30N 37°06' W 075°43'1 1.0
2014-Sep-21 04:30N 37°06' W 075°44'1 1.1
2014-Sep-21 03:32N 37°05' W 075°46'1 0.8
2014-Sep-21 02:33N 37°05' W 075°47'1 0.5
2014-Sep-21 00:32N 37°05' W 075°45'2 2.3
2014-Sep-20 23:33N 37°07' W 075°47'13 2.6
2014-Sep-20 18:21N 36°54' W 075°49'4 4.5
2014-Sep-20 17:31N 36°57' W 075°51'1 0.7
2014-Sep-20 16:29N 36°57' W 075°51'2 1.9
2014-Sep-20 15:33N 36°56' W 075°52'1 0.6
2014-Sep-20 14:33N 36°56' W 075°53'2 2.2
2014-Sep-20 13:31N 36°57' W 075°50'0 0.3
2014-Sep-20 12:33N 36°58' W 075°50'3 3.3
2014-Sep-20 11:33N 37°00' W 075°48'13 3.4
2014-Sep-20 07:33N 37°13' W 075°44'9 4.4
2014-Sep-20 05:29N 37°06' W 075°50'1 0.4
2014-Sep-20 03:18N 37°06' W 075°49'0 0.2
2014-Sep-20 02:33N 37°06' W 075°49'1 0.8
2014-Sep-20 01:33N 37°05' W 075°50'0 0.3
2014-Sep-20 00:33N 37°06' W 075°50'0 0.2
2014-Sep-19 23:30N 37°06' W 075°49'1 0.8
2014-Sep-19 22:26N 37°05' W 075°50'1 1.7
2014-Sep-19 21:33N 37°06' W 075°49'1 0.9
2014-Sep-19 20:33N 37°06' W 075°49'1 1.1
2014-Sep-19 19:23N 37°07' W 075°49'0 0.0
2014-Sep-19 18:31N 37°07' W 075°49'0 0.1
2014-Sep-19 14:26N 37°07' W 075°49'2 0.5
2014-Sep-19 11:07N 37°05' W 075°49'5 6.0
2014-Sep-19 10:13N 37°10' W 075°46'1 0.8
2014-Sep-19 09:29N 37°11' W 075°46'1 1.0
2014-Sep-19 08:04N 37°09' W 075°47'4 8.2
2014-Sep-19 07:33N 37°06' W 075°49'4 1.6
2014-Sep-19 05:09N 37°09' W 075°47'2 0.8
2014-Sep-19 02:30N 37°11' W 075°46'5 5.2
2014-Sep-19 01:31N 37°06' W 075°49'1 0.1
2014-Sep-18 15:21N 37°08' W 075°48'1 1.5
2014-Sep-18 14:28N 37°06' W 075°48'2 2.0
2014-Sep-18 13:30N 37°08' W 075°47'1 0.6
2014-Sep-18 11:29N 37°09' W 075°47'2 1.9
2014-Sep-18 10:33N 37°08' W 075°48'1 0.5
2014-Sep-18 08:33N 37°08' W 075°47'0 0.2
2014-Sep-18 07:32N 37°09' W 075°47'2 0.9
2014-Sep-18 05:25N 37°07' W 075°48'0 0.1
2014-Sep-17 23:14N 37°07' W 075°47'0 0.4
2014-Sep-17 22:33N 37°08' W 075°47'0 0.0
2014-Sep-17 17:32N 37°08' W 075°47'1 0.3
2014-Sep-17 14:19N 37°08' W 075°47'1 1.8
2014-Sep-17 13:32N 37°07' W 075°47'3 0.5
2014-Sep-17 08:27N 37°10' W 075°46'13 6.9
2014-Sep-17 06:31N 36°57' W 075°52'1 1.5
2014-Sep-17 05:33N 36°58' W 075°50'2 2.1
2014-Sep-17 04:33N 36°57' W 075°52'3 2.5
2014-Sep-17 03:33N 36°58' W 075°49'1 1.4
2014-Sep-17 02:32N 36°58' W 075°48'2 2.0
2014-Sep-17 01:32N 36°57' W 075°50'2 2.3
2014-Sep-17 00:33N 36°57' W 075°53'5 4.7
2014-Sep-16 23:32N 36°58' W 075°47'4 1.9
2014-Sep-16 21:25N 36°57' W 075°52'2 1.8
2014-Sep-16 20:22N 36°57' W 075°49'2 1.7
2014-Sep-16 19:21N 36°58' W 075°47'3 3.9
2014-Sep-16 18:31N 36°57' W 075°51'1 1.2
2014-Sep-16 17:30N 36°56' W 075°53'4 3.9
2014-Sep-16 16:30N 36°58' W 075°48'2 2.5
2014-Sep-16 15:30N 36°57' W 075°51'2 1.8
2014-Sep-16 14:28N 36°56' W 075°53'0 0.1
2014-Sep-16 13:08N 36°56' W 075°53'4 5.9
2014-Sep-16 12:32N 36°57' W 075°49'3 3.1
2014-Sep-16 11:32N 36°56' W 075°53'6 6.2
2014-Sep-16 10:33N 36°59' W 075°46'6 6.1
2014-Sep-16 09:33N 36°56' W 075°53'2 2.1
2014-Sep-16 08:31N 36°57' W 075°50'2 2.6
2014-Sep-16 07:33N 36°58' W 075°47'2 1.8
2014-Sep-16 06:29N 36°57' W 075°49'3 2.8
2014-Sep-16 05:30N 36°56' W 075°53'2 1.7
2014-Sep-16 04:31N 36°56' W 075°51'3 2.8
2014-Sep-16 03:29N 36°57' W 075°47'2 2.0
2014-Sep-16 02:30N 36°57' W 075°50'2 2.6
2014-Sep-16 01:34N 36°56' W 075°52'1 1.0
2014-Sep-16 00:31N 36°56' W 075°51'3 3.6
2014-Sep-15 23:33N 36°57' W 075°47'2 1.6
2014-Sep-15 22:24N 36°57' W 075°49'3 3.6
2014-Sep-15 21:32N 36°56' W 075°53'1411.5
2014-Sep-15 20:19N 36°59' W 076°10'10 2.6
2014-Sep-15 16:22N 36°51' W 076°18'0 0.0
2014-Sep-15 15:25N 36°51' W 076°18'0 0.0
2014-Sep-15 06:25N 36°51' W 076°18'0 0.0
2014-Sep-15 05:31N 36°51' W 076°18'0 0.0
2014-Sep-15 01:28N 36°51' W 076°18'0 0.0
2014-Sep-15 00:31N 36°51' W 076°18'0 0.0
2014-Sep-14 23:22N 36°51' W 076°18'0 0.0
2014-Sep-14 21:22N 36°51' W 076°18'0 0.0
2014-Sep-14 20:19N 36°51' W 076°18'0 0.0
2014-Sep-14 19:04N 36°51' W 076°18'0 0.0
2014-Sep-14 17:16N 36°51' W 076°18'0 0.0
2014-Sep-14 16:19N 36°51' W 076°18'0 0.0
2014-Sep-14 15:13N 36°51' W 076°18'0 0.0
2014-Sep-14 14:25N 36°51' W 076°18'0 0.0
2014-Sep-14 13:13N 36°51' W 076°18'0 0.0
2014-Sep-14 11:28N 36°51' W 076°18'0 0.0
2014-Sep-14 10:22N 36°51' W 076°18'0 0.0
2014-Sep-14 07:31N 36°51' W 076°18'0 0.0
2014-Sep-14 06:04N 36°51' W 076°18'0 0.0
2014-Sep-13 19:31N 36°51' W 076°18'0 0.0
2014-Sep-13 15:25N 36°51' W 076°18'0 0.0
2014-Sep-13 11:28N 36°51' W 076°18'0 0.0
2014-Sep-13 09:28N 36°51' W 076°18'0 0.0
2014-Sep-13 08:25N 36°51' W 076°18'0 0.0
2014-Sep-13 04:13N 36°51' W 076°18'0 0.0
2014-Sep-13 03:28N 36°51' W 076°18'0 0.0
2014-Sep-13 02:16N 36°51' W 076°18'0 0.0
2014-Sep-13 01:04N 36°51' W 076°18'0 0.0
2014-Sep-12 23:22N 36°51' W 076°18'0 0.0
2014-Sep-12 22:31N 36°51' W 076°18'0 0.0
2014-Sep-12 20:28N 36°51' W 076°18'0 0.0
2014-Sep-12 13:25N 36°51' W 076°18'1 1.4
2014-Sep-12 12:33N 36°52' W 076°19'9 9.0
2014-Sep-12 11:33N 37°00' W 076°16'1111.1
2014-Sep-12 10:33N 36°58' W 076°03'  

Dump ship's entire track history